createdAt,value
2018-11-07T00:00:12.647Z,5.7
2018-11-07T00:00:33.189Z,5.9
2018-11-07T00:00:54.766Z,5.8
2018-11-07T00:01:14.420Z,7.1
2018-11-07T00:01:35.429Z,5.8
2018-11-07T00:01:55.588Z,4.6
2018-11-07T00:02:16.342Z,6.1
2018-11-07T00:02:36.959Z,4.7
2018-11-07T00:02:57.726Z,5.2
2018-11-07T00:03:18.923Z,5.6
2018-11-07T00:03:39.858Z,4.7
2018-11-07T00:04:00.271Z,5.3
2018-11-07T00:04:20.669Z,5.8
2018-11-07T00:04:41.260Z,4.8
2018-11-07T00:05:02.060Z,5.4
2018-11-07T00:05:22.382Z,4.6
2018-11-07T00:05:43.347Z,5.8
2018-11-07T00:06:03.826Z,5.5
2018-11-07T00:06:24.144Z,6.2
2018-11-07T00:06:44.930Z,6.7
2018-11-07T00:07:06.095Z,6.2
2018-11-07T00:07:26.294Z,5.1
2018-11-07T00:07:46.674Z,5.4
2018-11-07T00:08:07.463Z,6.3
2018-11-07T00:08:27.889Z,6.2
2018-11-07T00:08:48.638Z,6.2
2018-11-07T00:09:08.103Z,7.2
2018-11-07T00:09:28.639Z,6.7
2018-11-07T00:09:49.055Z,7.8
2018-11-07T00:10:10.132Z,7.6
2018-11-07T00:10:29.851Z,6.5
2018-11-07T00:10:49.710Z,5.8
2018-11-07T00:11:09.283Z,5.4
2018-11-07T00:11:29.062Z,6.2
2018-11-07T00:11:48.856Z,6.9
2018-11-07T00:12:08.383Z,6.3
2018-11-07T00:12:27.944Z,5.7
2018-11-07T00:12:47.937Z,6.2
2018-11-07T00:13:08.009Z,5.1
2018-11-07T00:13:28.163Z,5.5
2018-11-07T00:13:48.153Z,6.1
2018-11-07T00:14:07.858Z,5.8
2018-11-07T00:14:27.690Z,5.7
2018-11-07T00:14:47.788Z,6.4
2018-11-07T00:15:07.631Z,5.9
2018-11-07T00:15:27.276Z,4.9
2018-11-07T00:15:46.779Z,5.5
2018-11-07T00:16:06.484Z,5.6
2018-11-07T00:16:26.112Z,5.9
2018-11-07T00:16:45.720Z,5.6
2018-11-07T00:17:05.360Z,5.1
2018-11-07T00:17:24.922Z,5.5
2018-11-07T00:17:44.533Z,5.3
2018-11-07T00:18:04.128Z,4.5
2018-11-07T00:18:23.671Z,5.1
2018-11-07T00:18:43.176Z,5.1
2018-11-07T00:19:02.751Z,4.9
2018-11-07T00:19:22.355Z,5.1
2018-11-07T00:19:41.896Z,4.2
2018-11-07T00:20:01.460Z,5.3
2018-11-07T00:20:23.018Z,6.1
2018-11-07T00:20:42.558Z,5.8
2018-11-07T00:21:02.111Z,5.6
2018-11-07T00:21:21.685Z,5.4
2018-11-07T00:21:41.302Z,4.9
2018-11-07T00:22:01.002Z,5.5
2018-11-07T00:22:20.546Z,5.1
2018-11-07T00:22:40.091Z,4.3
2018-11-07T00:22:59.673Z,5.9
2018-11-07T00:23:19.273Z,5.2
2018-11-07T00:23:38.869Z,4.6
2018-11-07T00:23:58.489Z,4.9
2018-11-07T00:24:18.149Z,3.9
2018-11-07T00:24:37.865Z,4.9
2018-11-07T00:24:57.622Z,4.8
2018-11-07T00:25:17.094Z,5.1
2018-11-07T00:25:36.671Z,4.8
2018-11-07T00:25:56.211Z,5
2018-11-07T00:26:15.951Z,4.8
2018-11-07T00:26:35.430Z,4.7
2018-11-07T00:26:54.936Z,5.1
2018-11-07T00:27:14.573Z,4.6
2018-11-07T00:27:34.124Z,4.5
2018-11-07T00:27:53.685Z,5.5
2018-11-07T00:28:13.284Z,6.1
2018-11-07T00:28:32.846Z,4.9
2018-11-07T00:28:52.462Z,5
2018-11-07T00:29:12.011Z,5.2
2018-11-07T00:29:32.552Z,4.8
2018-11-07T00:29:52.178Z,5.8
2018-11-07T00:30:11.905Z,5.5
2018-11-07T00:30:31.422Z,6.1
2018-11-07T00:30:50.957Z,6.2
2018-11-07T00:31:10.512Z,6.4
2018-11-07T00:31:30.150Z,6.1
2018-11-07T00:31:49.726Z,6.3
2018-11-07T00:32:09.271Z,5.6
2018-11-07T00:32:28.931Z,4.6
2018-11-07T00:32:48.468Z,5.7
2018-11-07T00:33:08.010Z,5
2018-11-07T00:33:27.605Z,5.2
2018-11-07T00:33:47.229Z,6.9
2018-11-07T00:34:06.771Z,5
2018-11-07T00:34:26.331Z,5.7
2018-11-07T00:34:45.866Z,5.7
2018-11-07T00:35:05.530Z,4.6
2018-11-07T00:35:25.059Z,5.6
2018-11-07T00:35:44.603Z,5.1
2018-11-07T00:36:04.145Z,5.2
2018-11-07T00:36:23.695Z,4.9
2018-11-07T00:36:43.261Z,4.7
2018-11-07T00:37:02.833Z,4.4
2018-11-07T00:37:22.467Z,5.2
2018-11-07T00:37:42.046Z,5.4
2018-11-07T00:38:01.596Z,5.3
2018-11-07T00:38:22.179Z,6.2
2018-11-07T00:38:41.867Z,5
2018-11-07T00:39:01.469Z,6
2018-11-07T00:39:21.080Z,5.6
2018-11-07T00:39:40.656Z,4.9
2018-11-07T00:40:01.197Z,5
2018-11-07T00:40:21.584Z,4.9
2018-11-07T00:40:41.540Z,6
2018-11-07T00:41:01.159Z,5.8
2018-11-07T00:41:20.699Z,6.4
2018-11-07T00:41:40.331Z,6.2
2018-11-07T00:42:00.930Z,7.4
2018-11-07T00:42:20.578Z,6.5
2018-11-07T00:42:40.137Z,6.3
2018-11-07T00:42:59.714Z,5.7
2018-11-07T00:43:19.312Z,4.7
2018-11-07T00:43:39.968Z,5.2
2018-11-07T00:43:59.569Z,4.4
2018-11-07T00:44:19.136Z,5.5
2018-11-07T00:44:38.722Z,6.4
2018-11-07T00:44:58.319Z,5.4
2018-11-07T00:45:18.016Z,5.8
2018-11-07T00:45:37.967Z,4.7
2018-11-07T00:45:58.351Z,3.9
2018-11-07T00:46:17.926Z,4.4
2018-11-07T00:46:37.534Z,6.7
2018-11-07T00:46:58.104Z,6.3
2018-11-07T00:47:17.713Z,5.5
2018-11-07T00:47:37.275Z,5.3
2018-11-07T00:47:56.870Z,5.1
2018-11-07T00:48:16.495Z,6
2018-11-07T00:48:36.946Z,7.2
2018-11-07T00:48:56.497Z,5.6
2018-11-07T00:49:16.029Z,4.7
2018-11-07T00:49:35.663Z,4.4
2018-11-07T00:49:56.266Z,3.9
2018-11-07T00:50:15.907Z,5.6
2018-11-07T00:50:35.465Z,4.9
2018-11-07T00:50:55.097Z,4.4
2018-11-07T00:51:14.705Z,4.7
2018-11-07T00:51:34.262Z,5.7
2018-11-07T00:51:53.819Z,5.7
2018-11-07T00:52:13.332Z,6.7
2018-11-07T00:52:32.980Z,4.5
2018-11-07T00:52:52.538Z,4.7
2018-11-07T00:53:12.124Z,4.7
2018-11-07T00:53:31.763Z,5.2
2018-11-07T00:53:51.313Z,6.9
2018-11-07T00:54:10.866Z,6.9
2018-11-07T00:54:30.461Z,5.7
2018-11-07T00:54:50.010Z,6.4
2018-11-07T00:55:09.614Z,5.6
2018-11-07T00:55:29.275Z,4.8
2018-11-07T00:55:48.889Z,6.1
2018-11-07T00:56:08.542Z,5.7
2018-11-07T00:56:29.071Z,4.9
2018-11-07T00:56:48.648Z,5.2
2018-11-07T00:57:08.189Z,5.6
2018-11-07T00:57:27.758Z,6.6
2018-11-07T00:57:47.386Z,6.1
2018-11-07T00:58:07.042Z,6.4
2018-11-07T00:58:26.559Z,6.6
2018-11-07T00:58:46.107Z,5.9
2018-11-07T00:59:06.699Z,4.5
2018-11-07T00:59:26.291Z,5.7
2018-11-07T00:59:45.859Z,7
2018-11-07T01:00:05.495Z,6.9
2018-11-07T01:00:25.203Z,4.9
2018-11-07T01:00:44.764Z,5.1
2018-11-07T01:01:04.381Z,4.5
2018-11-07T01:01:23.939Z,6.4
2018-11-07T01:01:43.472Z,7
2018-11-07T01:02:03.452Z,6.4
2018-11-07T01:02:23.005Z,5.7
2018-11-07T01:02:42.516Z,5.5
2018-11-07T01:03:02.081Z,5.8
2018-11-07T01:03:21.650Z,5.7
2018-11-07T01:03:41.204Z,5.6
2018-11-07T01:04:00.738Z,4.6
2018-11-07T01:04:20.275Z,4.1
2018-11-07T01:04:39.792Z,5.2
2018-11-07T01:04:59.389Z,5.2
2018-11-07T01:05:18.985Z,5.4
2018-11-07T01:05:38.673Z,4.7
2018-11-07T01:05:58.256Z,4.2
2018-11-07T01:06:17.871Z,3.9
2018-11-07T01:06:37.461Z,3.9
2018-11-07T01:06:57.041Z,6.2
2018-11-07T01:07:16.572Z,6.9
2018-11-07T01:07:36.127Z,5.3
2018-11-07T01:07:55.707Z,5
2018-11-07T01:08:15.360Z,6.4
2018-11-07T01:08:34.994Z,6.5
2018-11-07T01:08:54.568Z,5.8
2018-11-07T01:09:14.170Z,5.7
2018-11-07T01:09:33.702Z,5.9
2018-11-07T01:09:53.219Z,5.9
2018-11-07T01:10:12.796Z,4.6
2018-11-07T01:10:32.410Z,5.3
2018-11-07T01:10:51.987Z,5.3
2018-11-07T01:11:11.586Z,6
2018-11-07T01:11:31.132Z,4.6
2018-11-07T01:11:50.748Z,5.7
2018-11-07T01:12:10.290Z,6.2
2018-11-07T01:12:29.846Z,4.5
2018-11-07T01:12:49.392Z,4.7
2018-11-07T01:13:08.968Z,4.9
2018-11-07T01:13:28.521Z,4.7
2018-11-07T01:13:48.088Z,6
2018-11-07T01:14:07.644Z,5.2
2018-11-07T01:14:27.163Z,4.4
2018-11-07T01:14:46.718Z,4.7
2018-11-07T01:15:06.233Z,4.5
2018-11-07T01:15:25.782Z,5.1
2018-11-07T01:15:45.389Z,6
2018-11-07T01:16:04.891Z,5.8
2018-11-07T01:16:24.483Z,5.7
2018-11-07T01:16:44.163Z,5.2
2018-11-07T01:17:03.576Z,6.6
2018-11-07T01:17:23.107Z,6.8
2018-11-07T01:17:42.641Z,4.8
2018-11-07T01:18:02.176Z,5.8
2018-11-07T01:18:21.722Z,5
2018-11-07T01:18:41.250Z,4.7
2018-11-07T01:19:00.783Z,4.9
2018-11-07T01:19:20.305Z,5.3
2018-11-07T01:19:39.901Z,4.5
2018-11-07T01:19:59.465Z,4.1
2018-11-07T01:20:19.029Z,5.4
2018-11-07T01:20:38.668Z,5.2
2018-11-07T01:20:58.252Z,4.1
2018-11-07T01:21:17.776Z,4.9
2018-11-07T01:21:37.269Z,5
2018-11-07T01:21:56.824Z,6
2018-11-07T01:22:16.378Z,6
2018-11-07T01:22:35.924Z,4.9
2018-11-07T01:22:55.472Z,4.4
2018-11-07T01:23:14.996Z,4.5
2018-11-07T01:23:34.558Z,6
2018-11-07T01:23:54.107Z,5.4
2018-11-07T01:24:13.620Z,5
2018-11-07T01:24:33.147Z,3.9
2018-11-07T01:24:52.731Z,5
2018-11-07T01:25:12.277Z,5.5
2018-11-07T01:25:31.831Z,6.2
2018-11-07T01:25:51.422Z,5.5
2018-11-07T01:26:10.933Z,5.7
2018-11-07T01:26:30.495Z,3.7
2018-11-07T01:26:50.027Z,4.9
2018-11-07T01:27:09.621Z,4.9
2018-11-07T01:27:29.207Z,4.6
2018-11-07T01:27:48.773Z,4.5
2018-11-07T01:28:08.422Z,5.2
2018-11-07T01:28:27.954Z,4
2018-11-07T01:28:47.518Z,5.2
2018-11-07T01:29:07.080Z,5.3
2018-11-07T01:29:26.652Z,5.2
2018-11-07T01:29:46.270Z,4.5
2018-11-07T01:30:05.800Z,4.4
2018-11-07T01:30:25.427Z,5.2
2018-11-07T01:30:46.029Z,5.2
2018-11-07T01:31:05.815Z,5
2018-11-07T01:31:25.373Z,4.5
2018-11-07T01:31:44.994Z,5.4
2018-11-07T01:32:05.562Z,5
2018-11-07T01:32:25.187Z,4.9
2018-11-07T01:32:44.780Z,6.3
2018-11-07T01:33:04.394Z,5.1
2018-11-07T01:33:23.935Z,5
2018-11-07T01:33:43.470Z,4.6
2018-11-07T01:34:03.033Z,4.1
2018-11-07T01:34:22.622Z,4.6
2018-11-07T01:34:42.185Z,4.9
2018-11-07T01:35:01.752Z,6.3
2018-11-07T01:35:21.274Z,4.4
2018-11-07T01:35:40.793Z,5.2
2018-11-07T01:36:00.376Z,5.2
2018-11-07T01:36:19.919Z,5.2
2018-11-07T01:36:39.424Z,5.6
2018-11-07T01:36:58.958Z,5.2
2018-11-07T01:37:18.500Z,4.6
2018-11-07T01:37:38.023Z,4.5
2018-11-07T01:37:57.559Z,5
2018-11-07T01:38:18.127Z,5.4
2018-11-07T01:38:37.656Z,5.4
2018-11-07T01:38:57.203Z,5.4
2018-11-07T01:39:16.717Z,5.8
2018-11-07T01:39:36.232Z,4.4
2018-11-07T01:39:55.763Z,4.8
2018-11-07T01:40:15.279Z,5.1
2018-11-07T01:40:34.799Z,5.4
2018-11-07T01:40:54.405Z,4.4
2018-11-07T01:41:13.943Z,4.7
2018-11-07T01:41:33.499Z,4.4
2018-11-07T01:41:53.039Z,5.1
2018-11-07T01:42:12.615Z,5
2018-11-07T01:42:32.096Z,7
2018-11-07T01:42:51.635Z,4.7
2018-11-07T01:43:11.164Z,5.1
2018-11-07T01:43:30.704Z,5.3
2018-11-07T01:43:50.281Z,5.8
2018-11-07T01:44:09.923Z,5.3
2018-11-07T01:44:29.625Z,4.7
2018-11-07T01:44:49.278Z,4
2018-11-07T01:45:08.961Z,4.9
2018-11-07T01:45:28.621Z,6
2018-11-07T01:45:48.195Z,5.5
2018-11-07T01:46:07.809Z,5.3
2018-11-07T01:46:27.472Z,5.9
2018-11-07T01:46:47.118Z,5.2
2018-11-07T01:47:06.754Z,4
2018-11-07T01:47:26.316Z,3.9
2018-11-07T01:47:45.924Z,4.3
2018-11-07T01:48:05.565Z,3.9
2018-11-07T01:48:25.186Z,4.5
2018-11-07T01:48:44.747Z,4.6
2018-11-07T01:49:04.287Z,5.3
2018-11-07T01:49:23.825Z,4.6
2018-11-07T01:49:43.339Z,4.3
2018-11-07T01:50:02.882Z,5.1
2018-11-07T01:50:22.436Z,4.5
2018-11-07T01:50:42.011Z,4.1
2018-11-07T01:51:01.608Z,4.1
2018-11-07T01:51:21.139Z,3.8
2018-11-07T01:51:40.675Z,5
2018-11-07T01:52:00.298Z,4
2018-11-07T01:52:19.769Z,4.3
2018-11-07T01:52:39.357Z,3.7
2018-11-07T01:52:58.899Z,3.9
2018-11-07T01:53:18.717Z,4
2018-11-07T01:53:38.305Z,5
2018-11-07T01:53:57.814Z,4.5
2018-11-07T01:54:17.369Z,5.1
2018-11-07T01:54:37.908Z,4.7
2018-11-07T01:54:57.575Z,5.4
2018-11-07T01:55:17.006Z,4.9
2018-11-07T01:55:36.535Z,6.4
2018-11-07T01:55:56.045Z,4.7
2018-11-07T01:56:15.640Z,4.4
2018-11-07T01:56:35.198Z,3.9
2018-11-07T01:56:54.746Z,3.7
2018-11-07T01:57:14.271Z,4.3
2018-11-07T01:57:33.796Z,6.4
2018-11-07T01:57:53.400Z,6.6
2018-11-07T01:58:13.043Z,6.5
2018-11-07T01:58:32.615Z,5.6
2018-11-07T01:58:52.224Z,4.6
2018-11-07T01:59:11.744Z,4.4
2018-11-07T01:59:31.388Z,3.8
2018-11-07T01:59:50.952Z,4.1
2018-11-07T02:00:10.549Z,5.3
2018-11-07T02:00:30.123Z,4.8
2018-11-07T02:00:49.620Z,4.5
2018-11-07T02:01:09.206Z,5.5
2018-11-07T02:01:28.747Z,5.2
2018-11-07T02:01:48.297Z,5.1
2018-11-07T02:02:08.833Z,5.3
2018-11-07T02:02:28.404Z,4.8
2018-11-07T02:02:48.967Z,5.3
2018-11-07T02:03:08.532Z,5.7
2018-11-07T02:03:28.070Z,4.6
2018-11-07T02:03:47.600Z,5.4
2018-11-07T02:04:07.109Z,4.6
2018-11-07T02:04:26.646Z,4.5
2018-11-07T02:04:46.170Z,4.7
2018-11-07T02:05:05.782Z,4.4
2018-11-07T02:05:26.434Z,3.6
2018-11-07T02:05:46.074Z,4.4
2018-11-07T02:06:05.709Z,6.3
2018-11-07T02:06:25.312Z,4.8
2018-11-07T02:06:44.844Z,4.8
2018-11-07T02:07:04.453Z,4.9
2018-11-07T02:07:24.011Z,3.9
2018-11-07T02:07:43.500Z,4.3
2018-11-07T02:08:03.073Z,5.2
2018-11-07T02:08:22.645Z,4.1
2018-11-07T02:08:42.201Z,4
2018-11-07T02:09:01.834Z,6.2
2018-11-07T02:09:22.433Z,5.4
2018-11-07T02:09:41.956Z,3.4
2018-11-07T02:10:02.537Z,4.1
2018-11-07T02:10:22.143Z,4.5
2018-11-07T02:10:41.737Z,5.3
2018-11-07T02:11:02.258Z,6.1
2018-11-07T02:11:21.854Z,4
2018-11-07T02:11:41.601Z,4
2018-11-07T02:12:01.132Z,4.6
2018-11-07T02:12:20.723Z,4.7
2018-11-07T02:12:40.296Z,3.8
2018-11-07T02:12:59.876Z,4.5
2018-11-07T02:13:19.428Z,5.5
2018-11-07T02:13:39.055Z,5.7
2018-11-07T02:13:58.648Z,4.7
2018-11-07T02:14:18.201Z,6.4
2018-11-07T02:14:37.800Z,5.8
2018-11-07T02:14:58.408Z,5.7
2018-11-07T02:15:18.016Z,5.1
2018-11-07T02:15:37.571Z,5.4
2018-11-07T02:15:57.105Z,6.6
2018-11-07T02:16:16.644Z,5.7
2018-11-07T02:16:36.235Z,3.9
2018-11-07T02:16:55.801Z,4.5
2018-11-07T02:17:15.402Z,5
2018-11-07T02:17:34.939Z,5.3
2018-11-07T02:17:54.493Z,5.1
2018-11-07T02:18:13.998Z,5.3
2018-11-07T02:18:33.604Z,4.9
2018-11-07T02:18:53.134Z,5.2
2018-11-07T02:19:12.697Z,4.3
2018-11-07T02:19:32.236Z,5.1
2018-11-07T02:19:51.781Z,6.1
2018-11-07T02:20:11.324Z,4.4
2018-11-07T02:20:30.854Z,4.4
2018-11-07T02:20:50.364Z,4.7
2018-11-07T02:21:09.917Z,4.7
2018-11-07T02:21:30.523Z,5.4
2018-11-07T02:21:50.068Z,5.1
2018-11-07T02:22:09.605Z,5.2
2018-11-07T02:22:29.255Z,4.3
2018-11-07T02:22:48.888Z,4.6
2018-11-07T02:23:08.436Z,3.5
2018-11-07T02:23:27.953Z,3.5
2018-11-07T02:23:47.612Z,3.8
2018-11-07T02:24:07.188Z,6
2018-11-07T02:24:26.773Z,5.2
2018-11-07T02:24:46.324Z,4.7
2018-11-07T02:25:05.892Z,4.5
2018-11-07T02:25:25.578Z,4.3
2018-11-07T02:25:45.138Z,5.6
2018-11-07T02:26:04.713Z,6.3
2018-11-07T02:26:24.293Z,5.7
2018-11-07T02:26:43.794Z,6.2
2018-11-07T02:27:04.338Z,5.8
2018-11-07T02:27:23.869Z,7.1
2018-11-07T02:27:43.422Z,8
2018-11-07T02:28:03.000Z,7.3
2018-11-07T02:28:22.570Z,6
2018-11-07T02:28:42.194Z,5.7
2018-11-07T02:29:01.697Z,5
2018-11-07T02:29:21.198Z,6.8
2018-11-07T02:29:40.749Z,8
2018-11-07T02:30:00.374Z,6.6
2018-11-07T02:30:19.906Z,5.4
2018-11-07T02:30:39.428Z,6.5
2018-11-07T02:30:58.935Z,6.3
2018-11-07T02:31:18.468Z,6.9
2018-11-07T02:31:38.031Z,5.8
2018-11-07T02:31:57.552Z,6.8
2018-11-07T02:32:17.143Z,8.3
2018-11-07T02:32:36.662Z,7.8
2018-11-07T02:32:56.336Z,7.1
2018-11-07T02:33:15.857Z,6.2
2018-11-07T02:33:35.409Z,5.4
2018-11-07T02:33:54.960Z,6.3
2018-11-07T02:34:14.502Z,6.3
2018-11-07T02:34:34.079Z,6.1
2018-11-07T02:34:53.631Z,6.4
2018-11-07T02:35:13.223Z,7.3
2018-11-07T02:35:32.847Z,7.6
2018-11-07T02:35:52.365Z,8.2
2018-11-07T02:36:11.921Z,6.8
2018-11-07T02:36:31.432Z,7.1
2018-11-07T02:36:51.115Z,6.6
2018-11-07T02:37:10.694Z,5.7
2018-11-07T02:37:30.185Z,6
2018-11-07T02:37:49.698Z,6.1
2018-11-07T02:38:09.215Z,5.6
2018-11-07T02:38:28.727Z,6.2
2018-11-07T02:38:48.295Z,6.7
2018-11-07T02:39:08.795Z,6.7
2018-11-07T02:39:28.334Z,7
2018-11-07T02:39:47.878Z,7.8
2018-11-07T02:40:07.426Z,5.7
2018-11-07T02:40:26.945Z,6.8
2018-11-07T02:40:46.507Z,7.1
2018-11-07T02:41:06.033Z,6.9
2018-11-07T02:41:25.566Z,6.4
2018-11-07T02:41:45.249Z,6.8
2018-11-07T02:42:04.740Z,6.3
2018-11-07T02:42:24.284Z,5.9
2018-11-07T02:42:43.846Z,6.6
2018-11-07T02:43:03.386Z,6.1
2018-11-07T02:43:22.927Z,6.9
2018-11-07T02:43:42.449Z,7.3
2018-11-07T02:44:02.018Z,8.7
2018-11-07T02:44:21.561Z,8.7
2018-11-07T02:44:41.139Z,7.4
2018-11-07T02:45:00.783Z,6.6
2018-11-07T02:45:20.300Z,10.2
2018-11-07T02:45:39.825Z,9
2018-11-07T02:45:59.376Z,6.5
2018-11-07T02:46:18.943Z,6.8
2018-11-07T02:46:38.507Z,7
2018-11-07T02:46:58.142Z,7.8
2018-11-07T02:47:17.689Z,7.7
2018-11-07T02:47:37.233Z,7.2
2018-11-07T02:47:56.755Z,9.4
2018-11-07T02:48:16.271Z,8.8
2018-11-07T02:48:35.837Z,7.6
2018-11-07T02:48:55.377Z,8.3
2018-11-07T02:49:14.897Z,7
2018-11-07T02:49:34.433Z,6.9
2018-11-07T02:49:54.023Z,9
2018-11-07T02:50:13.560Z,8.5
2018-11-07T02:50:33.135Z,9.3
2018-11-07T02:50:52.697Z,8.7
2018-11-07T02:51:12.232Z,8.3
2018-11-07T02:51:31.762Z,8.5
2018-11-07T02:51:51.449Z,7.7
2018-11-07T02:52:11.019Z,8
2018-11-07T02:52:31.567Z,8.1
2018-11-07T02:52:51.114Z,9
2018-11-07T02:53:10.660Z,8.5
2018-11-07T02:53:30.312Z,8.9
2018-11-07T02:53:49.740Z,9.8
2018-11-07T02:54:09.298Z,9.8
2018-11-07T02:54:28.817Z,9
2018-11-07T02:54:48.328Z,8.8
2018-11-07T02:55:07.932Z,8.6
2018-11-07T02:55:27.435Z,9.2
2018-11-07T02:55:47.019Z,9
2018-11-07T02:56:06.589Z,9.4
2018-11-07T02:56:26.113Z,9
2018-11-07T02:56:45.659Z,9.4
2018-11-07T02:57:05.249Z,10.1
2018-11-07T02:57:24.797Z,8.2
2018-11-07T02:57:44.364Z,8.2
2018-11-07T02:58:03.939Z,7.9
2018-11-07T02:58:23.498Z,9.1
2018-11-07T02:58:43.076Z,9.8
2018-11-07T02:59:02.608Z,9.4
2018-11-07T02:59:22.140Z,8.1
2018-11-07T02:59:41.680Z,9.9
2018-11-07T03:00:01.295Z,9.8
2018-11-07T03:00:20.833Z,9.1
2018-11-07T03:00:40.388Z,9.2
2018-11-07T03:01:00.965Z,9
2018-11-07T03:01:20.694Z,9.3
2018-11-07T03:01:40.047Z,8
2018-11-07T03:01:59.651Z,9.2
2018-11-07T03:02:19.263Z,9.7
2018-11-07T03:02:38.869Z,8.6
2018-11-07T03:02:58.441Z,8.4
2018-11-07T03:03:18.067Z,8.6
2018-11-07T03:03:37.648Z,10
2018-11-07T03:03:57.217Z,9.8
2018-11-07T03:04:16.845Z,10.2
2018-11-07T03:04:36.484Z,10.9
2018-11-07T03:04:56.098Z,10.8
2018-11-07T03:05:15.620Z,10.9
2018-11-07T03:05:35.259Z,9.7
2018-11-07T03:05:55.817Z,10.4
2018-11-07T03:06:15.401Z,10.6
2018-11-07T03:06:34.994Z,11.2
2018-11-07T03:06:54.535Z,10.9
2018-11-07T03:07:14.151Z,10.9
2018-11-07T03:07:33.699Z,10.5
2018-11-07T03:07:53.315Z,9.6
2018-11-07T03:08:12.908Z,11.7
2018-11-07T03:08:32.467Z,10.6
2018-11-07T03:08:52.037Z,9.8
2018-11-07T03:09:11.638Z,10.2
2018-11-07T03:09:32.193Z,9.7
2018-11-07T03:09:51.804Z,9.5
2018-11-07T03:10:11.416Z,10.4
2018-11-07T03:10:31.980Z,9.7
2018-11-07T03:10:52.437Z,8.8
2018-11-07T03:11:12.014Z,10.8
2018-11-07T03:11:31.600Z,10.4
2018-11-07T03:11:51.171Z,9.1
2018-11-07T03:12:10.762Z,9.6
2018-11-07T03:12:30.308Z,10
2018-11-07T03:12:49.928Z,9.6
2018-11-07T03:13:09.510Z,11.2
2018-11-07T03:13:29.114Z,10.4
2018-11-07T03:13:48.743Z,11.2
2018-11-07T03:14:08.268Z,10.9
2018-11-07T03:14:27.842Z,11.8
2018-11-07T03:14:47.384Z,10.4
2018-11-07T03:15:06.976Z,9.2
2018-11-07T03:15:26.525Z,10.3
2018-11-07T03:15:46.080Z,11
2018-11-07T03:16:05.689Z,11.5
2018-11-07T03:16:25.257Z,12.7
2018-11-07T03:16:44.828Z,13.8
2018-11-07T03:17:04.685Z,12.1
2018-11-07T03:17:24.297Z,12
2018-11-07T03:17:43.906Z,11.7
2018-11-07T03:18:03.446Z,12.1
2018-11-07T03:18:22.975Z,11.2
2018-11-07T03:18:42.561Z,11.5
2018-11-07T03:19:02.148Z,12.9
2018-11-07T03:19:21.656Z,12.7
2018-11-07T03:19:41.217Z,13.5
2018-11-07T03:20:00.781Z,14.2
2018-11-07T03:20:20.331Z,13.6
2018-11-07T03:20:39.888Z,13.5
2018-11-07T03:20:59.479Z,13.3
2018-11-07T03:21:19.066Z,12.9
2018-11-07T03:21:38.574Z,13.3
2018-11-07T03:21:58.138Z,14
2018-11-07T03:22:17.785Z,14.3
2018-11-07T03:22:37.364Z,14.6
2018-11-07T03:22:56.959Z,13.9
2018-11-07T03:23:16.493Z,15.3
2018-11-07T03:23:36.037Z,14.7
2018-11-07T03:23:55.595Z,13.1
2018-11-07T03:24:15.175Z,14.4
2018-11-07T03:24:34.734Z,15
2018-11-07T03:24:54.270Z,16.299999
2018-11-07T03:25:13.808Z,14.7
2018-11-07T03:25:33.321Z,14.1
2018-11-07T03:25:52.852Z,14.9
2018-11-07T03:26:12.379Z,15.2
2018-11-07T03:26:31.982Z,15.9
2018-11-07T03:26:51.518Z,13.6
2018-11-07T03:27:11.083Z,15.4
2018-11-07T03:27:30.659Z,16.1
2018-11-07T03:27:50.174Z,14.4
2018-11-07T03:28:10.676Z,13.2
2018-11-07T03:28:30.245Z,14.8
2018-11-07T03:28:49.771Z,16.299999
2018-11-07T03:29:09.325Z,14.6
2018-11-07T03:29:28.891Z,14.5
2018-11-07T03:29:48.422Z,14.8
2018-11-07T03:30:07.996Z,15.1
2018-11-07T03:30:27.538Z,13.2
2018-11-07T03:30:48.065Z,13.2
2018-11-07T03:31:07.579Z,12.5
2018-11-07T03:31:28.138Z,13.4
2018-11-07T03:31:47.696Z,12.5
2018-11-07T03:32:07.236Z,11.9
2018-11-07T03:32:26.835Z,12.7
2018-11-07T03:32:46.385Z,15.6
2018-11-07T03:33:06.936Z,12.7
2018-11-07T03:33:26.467Z,10.5
2018-11-07T03:33:46.001Z,9.8
2018-11-07T03:34:05.522Z,8.5
2018-11-07T03:34:25.103Z,7.8
2018-11-07T03:34:44.748Z,8
2018-11-07T03:35:04.319Z,9.5
2018-11-07T03:35:23.873Z,9.4
2018-11-07T03:35:43.424Z,9.2
2018-11-07T03:36:02.994Z,8
2018-11-07T03:36:22.540Z,9.3
2018-11-07T03:36:42.114Z,8.5
2018-11-07T03:37:01.687Z,7
2018-11-07T03:37:21.229Z,6.5
2018-11-07T03:37:40.804Z,5.9
2018-11-07T03:38:00.340Z,5.9
2018-11-07T03:38:19.903Z,6.8
2018-11-07T03:38:39.504Z,6.3
2018-11-07T03:38:59.053Z,6.6
2018-11-07T03:39:18.615Z,5.8
2018-11-07T03:39:38.217Z,5.1
2018-11-07T03:39:58.801Z,5.7
2018-11-07T03:40:18.206Z,5.9
2018-11-07T03:40:37.717Z,5.5
2018-11-07T03:40:57.267Z,5
2018-11-07T03:41:16.810Z,6.8
2018-11-07T03:41:36.333Z,5.5
2018-11-07T03:41:55.848Z,5.9
2018-11-07T03:42:15.362Z,6.6
2018-11-07T03:42:34.949Z,6
2018-11-07T03:42:54.458Z,5.8
2018-11-07T03:43:14.869Z,6.4
2018-11-07T03:43:34.412Z,7.2
2018-11-07T03:43:53.935Z,7.4
2018-11-07T03:44:13.479Z,6.5
2018-11-07T03:44:33.015Z,4.6
2018-11-07T03:44:52.533Z,7.7
2018-11-07T03:45:12.075Z,8.3
2018-11-07T03:45:31.615Z,8.5
2018-11-07T03:45:51.181Z,6.5
2018-11-07T03:46:10.727Z,6.8
2018-11-07T03:46:30.272Z,6.3
2018-11-07T03:46:49.850Z,5.8
2018-11-07T03:47:09.378Z,6.5
2018-11-07T03:47:28.926Z,8.1
2018-11-07T03:47:49.485Z,7
2018-11-07T03:48:09.026Z,7.3
2018-11-07T03:48:28.592Z,7.1
2018-11-07T03:48:48.153Z,6.2
2018-11-07T03:49:07.678Z,8.1
2018-11-07T03:49:27.197Z,7.7
2018-11-07T03:49:46.775Z,8.4
2018-11-07T03:50:06.314Z,8.1
2018-11-07T03:50:25.844Z,6.3
2018-11-07T03:50:45.375Z,8.3
2018-11-07T03:51:04.912Z,7.7
2018-11-07T03:51:24.466Z,6.8
2018-11-07T03:51:44.001Z,8
2018-11-07T03:52:04.545Z,8.9
2018-11-07T03:52:25.090Z,8.8
2018-11-07T03:52:44.680Z,8.4
2018-11-07T03:53:04.225Z,7.6
2018-11-07T03:53:23.916Z,6.7
2018-11-07T03:53:43.348Z,6.7
2018-11-07T03:54:02.855Z,6.4
2018-11-07T03:54:22.395Z,8
2018-11-07T03:54:41.935Z,7.4
2018-11-07T03:55:02.457Z,6.5
2018-11-07T03:55:22.040Z,6.6
2018-11-07T03:55:41.620Z,6.4
2018-11-07T03:56:01.146Z,6.5
2018-11-07T03:56:20.741Z,6.9
2018-11-07T03:56:40.268Z,7.5
2018-11-07T03:56:59.859Z,7.6
2018-11-07T03:57:19.420Z,6.8
2018-11-07T03:57:38.952Z,6.9
2018-11-07T03:57:58.552Z,8.6
2018-11-07T03:58:18.076Z,9.7
2018-11-07T03:58:37.652Z,8.4
2018-11-07T03:58:57.166Z,6.2
2018-11-07T03:59:16.768Z,7.3
2018-11-07T03:59:36.297Z,7.7
2018-11-07T03:59:55.860Z,6.9
2018-11-07T04:00:15.384Z,7.6
2018-11-07T04:00:34.951Z,6.5
2018-11-07T04:00:54.514Z,6.4
2018-11-07T04:01:14.055Z,7.3
2018-11-07T04:01:33.578Z,6.6
2018-11-07T04:01:53.095Z,6.9
2018-11-07T04:02:12.631Z,7
2018-11-07T04:02:32.173Z,6.9
2018-11-07T04:02:51.787Z,5.8
2018-11-07T04:03:12.315Z,6.4
2018-11-07T04:03:31.862Z,6.4
2018-11-07T04:03:51.420Z,7.2
2018-11-07T04:04:11.048Z,7.2
2018-11-07T04:04:30.628Z,5.7
2018-11-07T04:04:50.237Z,5.8
2018-11-07T04:05:09.806Z,6.2
2018-11-07T04:05:29.366Z,6.1
2018-11-07T04:05:48.948Z,7.4
2018-11-07T04:06:09.228Z,7.8
2018-11-07T04:06:28.769Z,6.2
2018-11-07T04:06:48.312Z,6
2018-11-07T04:07:07.945Z,7.1
2018-11-07T04:07:27.480Z,6.8
2018-11-07T04:07:47.062Z,5.7
2018-11-07T04:08:06.670Z,6.3
2018-11-07T04:08:26.241Z,5.3
2018-11-07T04:08:46.803Z,6.5
2018-11-07T04:09:06.367Z,7.4
2018-11-07T04:09:26.966Z,7.2
2018-11-07T04:09:46.488Z,6.9
2018-11-07T04:10:06.078Z,7.3
2018-11-07T04:10:25.715Z,7.5
2018-11-07T04:10:45.317Z,5.2
2018-11-07T04:11:06.891Z,5.7
2018-11-07T04:11:26.522Z,5.4
2018-11-07T04:11:46.083Z,5.1
2018-11-07T04:12:05.673Z,5
2018-11-07T04:12:25.231Z,7.4
2018-11-07T04:12:44.791Z,8.1
2018-11-07T04:13:04.623Z,6.7
2018-11-07T04:13:24.190Z,5.9
2018-11-07T04:13:43.801Z,5.7
2018-11-07T04:14:03.403Z,5.5
2018-11-07T04:14:23.057Z,6.1
2018-11-07T04:14:42.620Z,6.1
2018-11-07T04:15:02.263Z,6.9
2018-11-07T04:15:21.890Z,5.1
2018-11-07T04:15:41.448Z,6.3
2018-11-07T04:16:01.040Z,6
2018-11-07T04:16:20.659Z,8.4
2018-11-07T04:16:40.276Z,6.8
2018-11-07T04:16:59.993Z,6.8
2018-11-07T04:17:19.549Z,6.6
2018-11-07T04:17:39.118Z,5.7
2018-11-07T04:17:58.709Z,7.3
2018-11-07T04:18:18.333Z,6.3
2018-11-07T04:18:37.964Z,5.9
2018-11-07T04:18:57.663Z,5.5
2018-11-07T04:19:17.086Z,6.2
2018-11-07T04:19:36.635Z,5.5
2018-11-07T04:19:56.161Z,5.7
2018-11-07T04:20:15.908Z,5.9
2018-11-07T04:20:35.513Z,6.4
2018-11-07T04:20:55.074Z,7.2
2018-11-07T04:21:14.584Z,6.4
2018-11-07T04:21:35.124Z,6.5
2018-11-07T04:21:54.661Z,6.4
2018-11-07T04:22:14.188Z,6.6
2018-11-07T04:22:33.706Z,5.4
2018-11-07T04:22:53.234Z,5.1
2018-11-07T04:23:12.893Z,5.9
2018-11-07T04:23:32.456Z,5.8
2018-11-07T04:23:53.483Z,5.5
2018-11-07T04:24:13.060Z,4.9
2018-11-07T04:24:32.601Z,5.1
2018-11-07T04:24:53.175Z,5.4
2018-11-07T04:25:13.734Z,6.6
2018-11-07T04:25:33.317Z,6.1
2018-11-07T04:25:53.868Z,6.1
2018-11-07T04:26:13.441Z,5.9
2018-11-07T04:26:33.010Z,6.9
2018-11-07T04:26:52.582Z,6.4
2018-11-07T04:27:12.248Z,5.6
2018-11-07T04:27:31.909Z,4.9
2018-11-07T04:27:51.432Z,6.9
2018-11-07T04:28:11.171Z,6.3
2018-11-07T04:28:30.784Z,5.7
2018-11-07T04:28:51.109Z,6.5
2018-11-07T04:29:11.109Z,5.7
2018-11-07T04:29:30.658Z,5.1
2018-11-07T04:29:50.229Z,7.4
2018-11-07T04:30:09.831Z,6.3
2018-11-07T04:30:29.344Z,5.2
2018-11-07T04:30:48.871Z,5.1
2018-11-07T04:31:08.391Z,5.3
2018-11-07T04:31:27.958Z,5.1
2018-11-07T04:31:47.477Z,5.2